Alton, Iowa
Current Conditions -  °F | °C
As of 6:35 AM on Sunday 21 Dec 2014 (Local Time) from KORC Reporting Station
Moderate Fog Moderate Fog  
Wind Chill: 29°   Ceiling: 100
Heat Index: 36°   Visibility: 0.25mi
Dew Point: 34°   Wind: 9mph
Humidity: 93%   Direction: 190°S
Pressure: 29.82"   Gusts: NA
Location:  42.99°N, 96.01°W
Report Text: KORC 211235Z AUTO 19008KT 1/4SM FG OVC001 02/01 A2982 RMK AO2
Loading
Personal Weather Stations






























Interactive Weather Map New forecast layout! Learn more

10-Day Weather Forecast

Advertisements
Track Severe Weather on mobile